Main page
METAR-TAF:

METAR-TAF

Airports :

Barcelona–El Prat Airport

Barcelona, Spain

latitude: 41-17N, longitude: 002-04E, elevation: 4 m

Current weather observation

The report was made 37 minutes ago, at 22:00 UTC
Wind 4 kt from the East/Northeast
Temperature 24°C
Humidity 83%
Pressure 1020 hPa
Visibility 10 km or more
Few clouds at a height of 1500 ft

METAR: LEBL 212200Z 06004KT 9999 FEW015 24/21 Q1020 NOSIG

Time: 00:37 (22:37 UTC)

Forecast

The report was made 5 hours and 37 minutes ago, at 17:00 UTC
Forecast valid from 21 at 18 UTC to 22 at 18 UTC
Wind 12 kt from the Southwest
Visibility 10 km or more
Few clouds at a height of 4000 ft
Becoming
from 21 at 18 UTC to 21 at 20 UTC
Wind 3 kt from variable directions
Becoming
from 22 at 10 UTC to 22 at 12 UTC
Wind 10 kt from the South/Southwest

TAF: LEBL 211700Z 2118/2218 22012KT 9999 FEW040 TX29/2212Z TN22/2206Z BECMG 2118/2120 VRB03KT BECMG 2210/2212 20010KT

Weather observations and forecasts of more than 4000 airports (METAR and TAF reports).

The available stations are represented by yellow and red dots on the map.

Hover mouse over dot to see the name of the station.

Then click to see weather observations and forecasts.

To change the map : click on the green buttons with a black cross to zoom in, on the green button with a dash to zoom out, or on the green arrows for adjacent maps.


METAR-TAF: